Time;durP1;ratioP1;P1;durP2;ratioP2;P2;SDS_P1;SDS_P2;PMS_P1;PMS_P2;Temp;Humidity;BMP_temperature;BMP_pressure;BME280_temperature;BME280_humidity;BME280_pressure;Samples;Min_cycle;Max_cycle;Signal;HPM_P1;HPM_P2
2022/07/05 00:00:41;;;;;;;3.00;2.80;;;23.40;67.40;;;;;;5071492;28;20021;-51
2022/07/05 00:03:07;;;;;;;3.55;2.85;;;23.40;67.20;;;;;;5071681;28;20770;-54
2022/07/05 00:05:33;;;;;;;3.10;2.80;;;23.40;67.00;;;;;;5073713;28;20127;-53
2022/07/05 00:07:59;;;;;;;3.13;2.92;;;23.40;66.90;;;;;;5069350;28;20024;-51
2022/07/05 00:10:25;;;;;;;3.10;2.40;;;23.40;66.80;;;;;;5073630;28;20028;-52
2022/07/05 00:12:51;;;;;;;2.67;2.40;;;23.40;66.80;;;;;;5070867;28;20025;-52
2022/07/05 00:15:18;;;;;;;2.53;2.33;;;23.40;66.50;;;;;;5074669;28;20036;-53
2022/07/05 00:17:44;;;;;;;2.47;2.28;;;23.30;66.20;;;;;;5080006;28;20528;-54
2022/07/05 00:20:11;;;;;;;2.63;2.42;;;23.30;66.50;;;;;;5081551;28;20031;-52
2022/07/05 00:22:37;;;;;;;2.57;2.37;;;23.30;66.80;;;;;;5081895;28;20174;-54
2022/07/05 00:25:03;;;;;;;2.78;2.50;;;23.30;66.90;;;;;;5081758;28;20020;-52
2022/07/05 00:27:29;;;;;;;3.72;2.33;;;23.30;67.00;;;;;;5081949;28;20028;-53
2022/07/05 00:29:55;;;;;;;1.85;1.75;;;23.30;67.30;;;;;;5081730;28;20098;-54
2022/07/05 00:32:21;;;;;;;3.58;2.40;;;23.30;67.30;;;;;;5081424;28;20096;-55
2022/07/05 00:34:47;;;;;;;2.17;2.03;;;23.30;67.10;;;;;;5083383;28;20055;-53
2022/07/05 00:37:14;;;;;;;2.20;2.00;;;23.30;66.90;;;;;;5082039;28;20155;-52
2022/07/05 00:39:40;;;;;;;2.50;2.30;;;23.30;66.80;;;;;;5085443;28;20029;-53
2022/07/05 00:42:06;;;;;;;1.70;1.60;;;23.30;66.60;;;;;;5085091;28;20033;-54
2022/07/05 00:44:35;;;;;;;1.85;1.75;;;23.20;66.40;;;;;;5084852;28;20049;-54
2022/07/05 00:47:04;;;;;;;1.70;1.60;;;23.20;66.50;;;;;;5084914;28;20032;-53
2022/07/05 00:49:31;;;;;;;1.77;1.67;;;23.20;66.40;;;;;;5084702;28;20027;-55
2022/07/05 00:51:58;;;;;;;1.63;1.52;;;23.20;66.30;;;;;;5085252;28;20493;-53
2022/07/05 00:54:24;;;;;;;1.40;1.30;;;23.20;66.60;;;;;;5084389;28;20032;-54
2022/07/05 00:56:50;;;;;;;1.50;1.40;;;23.20;66.60;;;;;;5084547;28;20039;-54
2022/07/05 00:59:16;;;;;;;1.60;1.50;;;23.20;66.80;;;;;;5083645;28;20033;-54
2022/07/05 01:01:42;;;;;;;1.60;1.50;;;23.20;66.30;;;;;;5084950;28;20028;-53
2022/07/05 01:04:10;;;;;;;1.70;1.60;;;23.10;66.20;;;;;;5083690;28;20040;-54
2022/07/05 01:06:36;;;;;;;;;;;23.10;66.00;;;;;;5080319;28;20052;-52
2022/07/05 01:09:02;;;;;;;1.50;1.40;;;23.10;66.60;;;;;;5068414;28;19915;-53
2022/07/05 01:11:28;;;;;;;1.50;1.40;;;23.10;66.10;;;;;;5084580;28;20032;-54
2022/07/05 01:13:55;;;;;;;1.73;1.60;;;23.10;66.00;;;;;;5084785;28;20029;-53
2022/07/05 01:16:21;;;;;;;1.63;1.30;;;23.10;65.90;;;;;;5084474;28;20037;-55
2022/07/05 01:18:47;;;;;;;1.27;1.10;;;23.00;66.10;;;;;;5081909;28;20016;-54
2022/07/05 01:21:14;;;;;;;1.38;1.27;;;23.00;66.40;;;;;;5084814;28;20089;-50
2022/07/05 01:23:40;;;;;;;1.52;1.42;;;23.00;67.20;;;;;;5083095;28;20026;-49
2022/07/05 01:26:06;;;;;;;1.42;1.33;;;23.00;66.60;;;;;;5082931;28;20071;-51
2022/07/05 01:28:32;;;;;;;1.67;1.58;;;23.00;66.90;;;;;;5082578;28;20027;-53
2022/07/05 01:31:00;;;;;;;1.50;1.40;;;22.90;66.80;;;;;;5084431;28;20028;-54
2022/07/05 01:33:29;;;;;;;1.27;1.17;;;22.90;66.90;;;;;;5083425;28;20528;-52
2022/07/05 01:35:56;;;;;;;1.40;1.30;;;22.90;66.80;;;;;;5083880;28;20044;-55
2022/07/05 01:38:23;;;;;;;1.25;1.15;;;22.90;67.00;;;;;;5063253;28;20092;-52
2022/07/05 01:40:52;;;;;;;1.53;1.43;;;22.90;66.80;;;;;;5082643;28;20028;-50
2022/07/05 01:43:21;;;;;;;1.67;1.58;;;22.90;66.90;;;;;;5083254;28;20048;-54
2022/07/05 01:45:47;;;;;;;1.65;1.55;;;22.80;66.70;;;;;;5083556;28;20040;-52
2022/07/05 01:48:15;;;;;;;1.80;1.70;;;22.80;66.60;;;;;;5077250;28;20031;-55
2022/07/05 01:50:47;;;;;;;2.20;2.00;;;22.80;66.50;;;;;;5075065;28;20058;-54
2022/07/05 01:53:18;;;;;;;1.90;1.80;;;22.80;66.50;;;;;;5071888;28;20021;-54
2022/07/05 01:55:45;;;;;;;2.45;2.25;;;22.80;66.50;;;;;;5073796;28;20029;-55
2022/07/05 01:58:11;;;;;;;2.47;2.28;;;22.80;66.50;;;;;;5074962;28;20043;-55
2022/07/05 02:00:51;;;;;;;2.30;2.10;;;22.70;66.40;;;;;;5074212;28;20024;-54
2022/07/05 02:03:17;;;;;;;2.60;2.40;;;22.70;66.20;;;;;;5070190;28;20036;-52
2022/07/05 02:05:43;;;;;;;2.63;2.42;;;22.70;66.10;;;;;;5063054;28;20572;-54
2022/07/05 02:08:10;;;;;;;3.50;2.90;;;22.70;66.10;;;;;;5073267;28;20573;-54
2022/07/05 02:10:37;;;;;;;3.47;3.17;;;22.70;65.90;;;;;;5074495;28;20136;-52
2022/07/05 02:13:03;;;;;;;4.03;3.63;;;22.60;65.60;;;;;;5073590;28;20556;-55
2022/07/05 02:15:37;;;;;;;4.32;3.92;;;22.60;65.70;;;;;;5077548;28;20063;-53
2022/07/05 02:18:04;;;;;;;4.38;4.05;;;22.60;65.20;;;;;;5073270;28;20056;-55
2022/07/05 02:20:30;;;;;;;4.68;4.28;;;22.60;65.30;;;;;;5080948;28;20048;-50
2022/07/05 02:22:56;;;;;;;5.05;4.60;;;22.60;65.30;;;;;;5083284;28;20044;-52
2022/07/05 02:25:23;;;;;;;4.93;4.53;;;22.60;65.30;;;;;;5083429;28;20033;-50
2022/07/05 02:27:49;;;;;;;5.10;4.70;;;22.60;65.50;;;;;;5067453;28;20607;-50
2022/07/05 02:30:15;;;;;;;4.97;4.53;;;22.50;65.50;;;;;;5063182;28;20057;-53
2022/07/05 02:32:42;;;;;;;5.72;5.13;;;22.50;65.70;;;;;;5062861;28;20041;-54
2022/07/05 02:35:09;;;;;;;5.00;4.60;;;22.50;65.60;;;;;;5080616;28;20065;-51
2022/07/05 02:37:35;;;;;;;5.82;5.32;;;22.50;65.70;;;;;;5069694;28;20041;-53
2022/07/05 02:40:01;;;;;;;5.63;5.13;;;22.50;65.70;;;;;;5074691;28;20032;-52
2022/07/05 02:42:27;;;;;;;6.32;5.50;;;22.40;65.70;;;;;;5080890;28;20021;-53
2022/07/05 02:44:53;;;;;;;5.63;5.13;;;22.40;65.70;;;;;;5082933;28;20106;-53
2022/07/05 02:47:19;;;;;;;5.72;5.22;;;22.40;65.50;;;;;;5074743;28;20032;-54
2022/07/05 02:49:45;;;;;;;5.88;5.38;;;22.40;65.30;;;;;;5063069;28;20092;-51
2022/07/05 02:52:11;;;;;;;6.65;6.05;;;22.30;65.20;;;;;;5062770;28;20029;-56
2022/07/05 02:54:39;;;;;;;5.90;5.35;;;22.40;65.10;;;;;;5062714;28;20025;-53
2022/07/05 02:57:05;;;;;;;5.78;5.22;;;22.30;64.90;;;;;;5071046;28;20151;-56
2022/07/05 02:59:32;;;;;;;6.67;6.07;;;22.30;64.70;;;;;;5083177;28;20033;-54
2022/07/05 03:01:58;;;;;;;6.20;5.60;;;22.30;64.70;;;;;;5082697;28;20360;-53
2022/07/05 03:04:24;;;;;;;6.18;5.43;;;22.20;64.30;;;;;;5081546;28;20040;-51
2022/07/05 03:06:50;;;;;;;6.45;5.85;;;22.20;64.40;;;;;;5075555;28;20032;-54
2022/07/05 03:09:16;;;;;;;6.32;5.82;;;22.20;64.40;;;;;;5062592;28;20646;-54
2022/07/05 03:11:42;;;;;;;6.18;5.68;;;22.20;64.40;;;;;;5080812;28;20025;-52
2022/07/05 03:14:08;;;;;;;6.45;5.95;;;22.20;64.40;;;;;;5082473;28;20036;-50
2022/07/05 03:16:34;;;;;;;6.40;5.80;;;22.10;64.30;;;;;;5082339;28;20068;-54
2022/07/05 03:19:00;;;;;;;6.57;5.97;;;22.20;64.40;;;;;;5067305;28;20028;-54
2022/07/05 03:21:26;;;;;;;6.65;5.88;;;22.10;64.30;;;;;;5062297;28;20041;-56
2022/07/05 03:23:52;;;;;;;7.18;6.22;;;22.10;64.40;;;;;;5062582;28;20029;-55
2022/07/05 03:26:18;;;;;;;6.70;6.10;;;22.10;64.20;;;;;;5063084;28;20059;-53
2022/07/05 03:28:44;;;;;;;6.47;5.88;;;22.10;64.20;;;;;;5077442;28;20036;-57
2022/07/05 03:31:10;;;;;;;6.78;6.10;;;22.10;64.10;;;;;;5082973;28;20626;-48
2022/07/05 03:33:37;;;;;;;13.85;7.72;;;22.00;63.50;;;;;;5067919;28;20095;-56
2022/07/05 03:36:03;;;;;;;9.93;7.15;;;22.00;64.00;;;;;;5080147;28;20130;-48
2022/07/05 03:38:29;;;;;;;9.47;7.90;;;22.00;64.60;;;;;;5075611;28;20048;-57
2022/07/05 03:40:55;;;;;;;19.73;9.35;;;21.90;65.40;;;;;;5071426;28;20032;-52
2022/07/05 03:43:21;;;;;;;19.92;10.05;;;21.90;66.20;;;;;;5073468;28;20147;-59
2022/07/05 03:45:47;;;;;;;18.55;9.88;;;21.90;66.20;;;;;;5074145;28;20040;-57
2022/07/05 03:48:14;;;;;;;21.73;9.65;;;21.90;66.10;;;;;;5078075;28;20053;-51
2022/07/05 03:50:40;;;;;;;17.00;9.38;;;21.90;65.90;;;;;;5070359;28;20088;-53
2022/07/05 03:53:06;;;;;;;16.30;9.63;;;21.90;65.60;;;;;;5081450;28;20043;-51
2022/07/05 03:55:32;;;;;;;12.57;9.45;;;21.90;65.80;;;;;;5079568;28;20033;-51
2022/07/05 03:57:58;;;;;;;16.80;11.73;;;21.90;65.00;;;;;;5068450;28;20035;-49
2022/07/05 04:00:24;;;;;;;20.13;12.32;;;21.90;65.30;;;;;;5071896;28;20048;-51
2022/07/05 04:02:50;;;;;;;17.80;12.25;;;22.00;65.70;;;;;;5056314;28;20054;-49
2022/07/05 04:05:17;;;;;;;21.13;16.15;;;21.90;66.10;;;;;;5060545;28;20075;-49
2022/07/05 04:07:50;;;;;;;23.75;19.20;;;21.90;64.80;;;;;;5063347;28;20024;-45
2022/07/05 04:10:17;;;;;;;24.77;17.75;;;21.90;64.40;;;;;;5061505;28;20043;-47
2022/07/05 04:13:02;;;;;;;24.85;18.13;;;21.90;64.10;;;;;;5063810;28;20120;-50
2022/07/05 04:15:28;;;;;;;20.25;16.75;;;21.90;63.80;;;;;;5058182;28;20067;-48
2022/07/05 04:17:55;;;;;;;21.52;15.73;;;21.90;63.70;;;;;;5052212;28;20036;-45
2022/07/05 04:20:21;;;;;;;20.83;16.17;;;21.90;63.50;;;;;;5050169;28;20026;-46
2022/07/05 04:22:51;;;;;;;24.02;18.90;;;21.90;63.10;;;;;;5049890;28;20155;-45
2022/07/05 04:25:21;;;;;;;23.42;17.77;;;21.90;63.70;;;;;;5054551;28;20050;-43
2022/07/05 04:27:55;;;;;;;24.75;18.15;;;21.80;64.00;;;;;;5056397;28;20543;-43
2022/07/05 04:30:22;;;;;;;21.35;16.92;;;21.70;64.10;;;;;;5059653;28;20036;-43
2022/07/05 04:32:48;;;;;;;30.02;20.58;;;21.70;64.10;;;;;;5066115;28;20108;-42
2022/07/05 04:35:15;;;;;;;67.00;38.90;;;21.70;64.10;;;;;;5063536;28;20029;-42
2022/07/05 04:37:41;;;;;;;69.43;38.67;;;21.60;64.00;;;;;;5067175;28;20115;-42
2022/07/05 04:40:09;;;;;;;91.28;50.70;;;21.60;63.90;;;;;;5071261;28;20124;-42
2022/07/05 04:42:35;;;;;;;91.10;51.05;;;21.60;64.00;;;;;;5074833;28;20032;-43
2022/07/05 04:45:01;;;;;;;79.00;45.95;;;21.60;63.90;;;;;;5070188;28;20171;-43
2022/07/05 04:47:27;;;;;;;71.38;41.53;;;21.60;63.70;;;;;;5078946;28;20020;-42
2022/07/05 04:49:54;;;;;;;64.75;38.10;;;21.60;63.80;;;;;;5082372;28;20029;-43
2022/07/05 04:52:20;;;;;;;58.27;36.13;;;21.50;63.70;;;;;;5104991;28;20036;-43
2022/07/05 04:54:46;;;;;;;54.63;32.17;;;21.50;63.70;;;;;;5085477;28;20028;-43
2022/07/05 04:57:12;;;;;;;51.15;32.30;;;21.50;63.50;;;;;;5085649;28;20044;-44
2022/07/05 04:59:39;;;;;;;50.58;30.48;;;21.50;63.50;;;;;;5083872;28;20499;-44
2022/07/05 05:02:05;;;;;;;42.85;27.02;;;21.50;63.40;;;;;;5084493;28;20080;-46
2022/07/05 05:04:31;;;;;;;43.33;25.42;;;21.50;63.30;;;;;;5083065;28;20024;-44
2022/07/05 05:06:58;;;;;;;36.55;24.40;;;21.50;63.20;;;;;;5086233;28;20033;-45
2022/07/05 05:09:24;;;;;;;38.33;23.17;;;21.50;63.20;;;;;;5083694;28;20017;-43
2022/07/05 05:11:50;;;;;;;36.38;22.42;;;21.50;63.20;;;;;;5083816;28;20056;-47
2022/07/05 05:14:16;;;;;;;32.22;20.98;;;21.50;63.20;;;;;;5086359;28;20064;-43
2022/07/05 05:16:43;;;;;;;31.60;19.48;;;21.40;63.00;;;;;;5081813;28;20041;-45
2022/07/05 05:19:09;;;;;;;27.38;18.52;;;21.40;63.00;;;;;;5083062;28;20033;-46
2022/07/05 05:21:35;;;;;;;26.88;17.73;;;21.40;63.00;;;;;;5083347;28;20048;-45
2022/07/05 05:24:01;;;;;;;25.48;17.48;;;21.40;62.90;;;;;;5083577;28;20092;-44
2022/07/05 05:26:27;;;;;;;90.72;51.30;;;21.40;63.70;;;;;;5083350;28;20052;-43
2022/07/05 05:28:53;;;;;;;62.88;37.78;;;21.40;62.80;;;;;;5083803;28;20077;-44
2022/07/05 05:31:19;;;;;;;53.42;32.78;;;21.30;62.70;;;;;;5082449;28;20029;-48
2022/07/05 05:33:46;;;;;;;46.60;29.08;;;21.30;62.70;;;;;;5082380;28;20032;-46
2022/07/05 05:36:12;;;;;;;45.63;27.98;;;21.30;62.60;;;;;;5083637;28;20036;-45
2022/07/05 05:38:38;;;;;;;42.75;26.42;;;21.30;62.60;;;;;;5083345;28;20024;-44
2022/07/05 05:41:04;;;;;;;39.08;23.00;;;21.30;62.60;;;;;;5082615;28;20035;-45
2022/07/05 05:43:50;;;;;;;34.03;21.63;;;21.30;62.50;;;;;;4999985;28;20041;-46
2022/07/05 05:46:16;;;;;;;33.83;20.95;;;21.20;62.40;;;;;;5016865;28;20493;-44
2022/07/05 05:48:43;;;;;;;30.95;18.92;;;21.20;62.50;;;;;;5018712;28;20034;-45
2022/07/05 05:51:09;;;;;;;27.13;17.58;;;21.20;62.30;;;;;;5034351;28;20061;-45
2022/07/05 05:53:35;;;;;;;26.00;16.65;;;21.20;62.30;;;;;;5021010;28;20040;-44
2022/07/05 05:56:01;;;;;;;26.73;17.60;;;21.20;62.30;;;;;;5021733;28;20046;-46
2022/07/05 05:58:27;;;;;;;23.38;15.82;;;21.20;62.40;;;;;;5008658;28;20029;-46
2022/07/05 06:00:53;;;;;;;21.77;14.70;;;21.20;62.40;;;;;;5016530;28;20059;-46
2022/07/05 06:03:20;;;;;;;22.10;13.85;;;21.10;62.30;;;;;;5012671;28;20094;-47
2022/07/05 06:05:46;;;;;;;18.90;12.60;;;21.10;62.40;;;;;;5027078;28;20037;-45
2022/07/05 06:08:13;;;;;;;16.50;11.38;;;21.10;62.30;;;;;;5007278;28;20104;-45
2022/07/05 06:10:39;;;;;;;17.70;11.52;;;21.10;62.30;;;;;;5014829;28;20034;-44
2022/07/05 06:13:07;;;;;;;15.63;10.83;;;21.10;62.20;;;;;;5009554;28;20033;-48
2022/07/05 06:15:33;;;;;;;15.02;10.52;;;21.10;62.20;;;;;;5017260;28;20297;-45
2022/07/05 06:17:59;;;;;;;13.15;9.65;;;21.10;62.10;;;;;;5018128;28;20143;-45
2022/07/05 06:20:30;;;;;;;13.20;9.82;;;21.00;61.90;;;;;;5025681;28;20047;-47
2022/07/05 06:22:56;;;;;;;12.50;8.82;;;21.00;61.90;;;;;;5087310;28;20025;-46
2022/07/05 06:25:22;;;;;;;12.47;8.30;;;21.00;61.90;;;;;;5073636;28;20033;-46
2022/07/05 06:27:56;;;;;;;11.07;8.27;;;21.00;61.90;;;;;;5076070;28;20277;-48
2022/07/05 06:30:23;;;;;;;10.80;7.65;;;21.00;62.00;;;;;;5084553;28;20494;-46
2022/07/05 06:32:49;;;;;;;9.50;7.07;;;20.90;62.00;;;;;;5083522;28;20025;-45
2022/07/05 06:35:16;;;;;;;8.98;6.50;;;20.90;62.10;;;;;;5078944;28;20127;-44
2022/07/05 06:37:46;;;;;;;8.73;6.80;;;20.90;62.00;;;;;;5077731;28;20041;-44
2022/07/05 06:40:16;;;;;;;8.45;6.28;;;20.90;62.00;;;;;;5095252;28;20035;-46
2022/07/05 06:42:42;;;;;;;8.18;6.18;;;20.90;61.90;;;;;;5067606;28;20028;-45
2022/07/05 06:45:09;;;;;;;8.93;6.20;;;20.90;61.90;;;;;;5073817;28;20040;-47
2022/07/05 06:47:35;;;;;;;7.68;5.43;;;20.90;62.00;;;;;;5071870;28;20074;-46
2022/07/05 06:50:04;;;;;;;7.07;5.63;;;20.80;61.90;;;;;;5075883;28;20028;-45
2022/07/05 06:52:31;;;;;;;8.07;5.80;;;20.80;61.90;;;;;;5079898;28;20041;-43
2022/07/05 06:54:58;;;;;;;6.60;5.10;;;20.80;61.90;;;;;;5080816;28;20028;-46
2022/07/05 06:57:24;;;;;;;6.65;5.13;;;20.80;61.90;;;;;;5078726;28;20474;-43
2022/07/05 06:59:50;;;;;;;5.43;4.80;;;20.80;61.90;;;;;;5068236;28;20029;-43
2022/07/05 07:02:17;;;;;;;6.90;4.70;;;20.80;61.90;;;;;;5071207;28;20071;-44
2022/07/05 07:04:43;;;;;;;5.80;4.60;;;20.70;62.00;;;;;;5075931;28;20024;-43
2022/07/05 07:09:17;;;;;;;4.93;4.38;;;20.70;62.10;;;;;;5079802;28;20032;-43
2022/07/05 07:10:01;;;;;;;4.75;3.92;;;20.70;62.10;;;;;;5077243;28;20491;-44
2022/07/05 07:12:29;;;;;;;4.80;4.25;;;20.70;62.00;;;;;;5069074;28;20089;-43
2022/07/05 07:14:56;;;;;;;5.25;4.45;;;20.70;62.00;;;;;;5080682;28;20032;-43
2022/07/05 07:17:22;;;;;;;;;;;20.70;62.00;;;;;;5077068;28;20059;-44
2022/07/05 07:19:48;;;;;;;4.75;3.85;;;20.70;62.00;;;;;;5079325;28;19974;-44
2022/07/05 07:22:14;;;;;;;4.22;3.83;;;20.70;61.90;;;;;;5084600;28;20028;-45
2022/07/05 07:24:40;;;;;;;4.82;4.28;;;20.60;61.90;;;;;;5079303;28;20111;-46
2022/07/05 07:27:07;;;;;;;4.15;3.75;;;20.60;61.90;;;;;;5078770;28;20021;-47
2022/07/05 07:29:37;;;;;;;3.90;3.50;;;20.60;61.90;;;;;;5080432;28;20041;-47
2022/07/05 07:32:04;;;;;;;4.28;3.45;;;20.60;61.80;;;;;;5071907;28;20831;-45
2022/07/05 07:34:31;;;;;;;3.97;3.58;;;20.60;61.90;;;;;;5079632;28;20039;-45
2022/07/05 07:37:16;;;;;;;3.72;3.25;;;20.60;61.80;;;;;;5079373;28;20070;-47
2022/07/05 07:39:42;;;;;;;4.55;3.60;;;20.50;61.70;;;;;;5085923;28;20028;-45
2022/07/05 07:42:08;;;;;;;3.85;3.35;;;20.50;61.70;;;;;;5081658;28;20024;-46
2022/07/05 07:44:34;;;;;;;3.43;3.13;;;20.50;61.80;;;;;;5068995;28;20053;-45
2022/07/05 07:47:00;;;;;;;3.78;3.38;;;20.50;61.70;;;;;;5074959;28;20028;-47
2022/07/05 07:49:26;;;;;;;4.07;3.63;;;20.50;61.70;;;;;;5085756;28;20028;-47
2022/07/05 07:51:53;;;;;;;4.95;3.38;;;20.40;61.60;;;;;;5087029;28;20111;-51
2022/07/05 07:54:19;;;;;;;3.58;3.15;;;20.40;61.60;;;;;;5079332;28;20055;-49
2022/07/05 07:56:45;;;;;;;4.38;3.33;;;20.40;61.70;;;;;;5085149;28;20047;-47
2022/07/05 07:59:11;;;;;;;5.47;3.20;;;20.40;61.60;;;;;;5083455;28;20032;-47
2022/07/05 08:01:37;;;;;;;3.22;2.92;;;20.40;61.60;;;;;;5082815;28;20032;-50
2022/07/05 08:04:03;;;;;;;3.22;2.92;;;20.40;61.60;;;;;;5076787;28;20029;-49
2022/07/05 08:06:30;;;;;;;3.30;2.92;;;20.30;61.50;;;;;;5084484;28;20029;-52
2022/07/05 08:08:56;;;;;;;3.60;3.08;;;20.30;61.50;;;;;;5080792;28;20032;-48
2022/07/05 08:11:22;;;;;;;3.15;2.85;;;20.30;61.60;;;;;;5078605;28;20043;-46
2022/07/05 08:13:48;;;;;;;3.40;3.03;;;20.30;61.70;;;;;;5081481;28;20048;-47
2022/07/05 08:16:15;;;;;;;3.42;3.13;;;20.30;61.70;;;;;;5077698;28;20037;-46
2022/07/05 08:21:32;;;;;;;3.45;3.05;;;20.30;61.90;;;;;;5090181;28;20055;-52
2022/07/05 08:23:59;;;;;;;4.90;3.13;;;20.30;61.80;;;;;;5079883;28;20021;-48
2022/07/05 08:26:26;;;;;;;4.90;3.22;;;20.30;61.80;;;;;;5073992;28;20035;-46
2022/07/05 08:28:52;;;;;;;3.15;2.67;;;20.30;61.90;;;;;;5083628;28;20032;-50
2022/07/05 08:31:18;;;;;;;6.20;3.10;;;20.30;61.90;;;;;;5077861;28;20033;-49
2022/07/05 08:33:45;;;;;;;6.40;3.27;;;20.20;61.80;;;;;;5076898;28;20028;-50
2022/07/05 08:36:11;;;;;;;3.50;2.72;;;20.20;61.80;;;;;;5083954;28;20067;-49
2022/07/05 08:38:37;;;;;;;4.82;2.90;;;20.20;61.80;;;;;;5068103;28;21120;-52
2022/07/05 08:41:03;;;;;;;3.38;2.92;;;20.20;61.80;;;;;;5080126;28;20032;-52
2022/07/05 08:43:29;;;;;;;3.13;2.67;;;20.20;61.80;;;;;;5077316;28;20044;-51
2022/07/05 08:45:56;;;;;;;4.10;3.13;;;20.20;61.80;;;;;;5076014;28;20024;-51
2022/07/05 08:48:22;;;;;;;;;;;20.10;61.60;;;;;;5080282;28;20035;-53
2022/07/05 08:50:50;;;;;;;3.25;2.65;;;20.20;61.70;;;;;;5084018;28;19951;-51
2022/07/05 08:53:18;;;;;;;4.93;2.83;;;20.10;61.60;;;;;;5081527;28;20036;-50
2022/07/05 08:55:45;;;;;;;3.17;2.90;;;20.10;61.60;;;;;;5082700;28;20064;-51
2022/07/05 08:58:11;;;;;;;3.80;2.80;;;20.10;61.70;;;;;;5083327;28;20845;-53
2022/07/05 09:00:41;;;;;;;4.07;2.97;;;20.10;61.70;;;;;;5084317;28;20082;-48
2022/07/05 09:03:07;;;;;;;2.72;2.50;;;20.10;61.70;;;;;;5081153;28;20020;-48
2022/07/05 09:05:42;;;;;;;2.78;2.50;;;20.00;61.70;;;;;;5075211;28;20080;-52
2022/07/05 09:08:10;;;;;;;3.03;2.58;;;20.10;61.80;;;;;;5083542;28;20052;-51
2022/07/05 09:10:37;;;;;;;3.85;2.95;;;20.10;61.80;;;;;;5080536;28;20040;-50
2022/07/05 09:13:03;;;;;;;3.13;2.63;;;20.10;61.90;;;;;;5076111;28;20057;-49
2022/07/05 09:15:29;;;;;;;3.10;2.80;;;20.00;61.80;;;;;;5084316;28;20772;-51
2022/07/05 09:17:55;;;;;;;2.53;2.30;;;20.00;61.80;;;;;;5081554;28;20028;-53
2022/07/05 09:20:22;;;;;;;3.28;2.97;;;20.00;61.70;;;;;;5073066;28;20036;-52
2022/07/05 09:22:55;;;;;;;3.20;2.60;;;20.00;61.80;;;;;;5072375;28;20036;-52
2022/07/05 09:25:31;;;;;;;3.20;2.85;;;19.90;61.70;;;;;;5071699;28;20036;-52
2022/07/05 09:28:01;;;;;;;2.92;2.55;;;19.90;62.10;;;;;;5072468;28;20025;-53
2022/07/05 09:30:41;;;;;;;2.60;2.40;;;19.90;62.60;;;;;;5075975;28;20112;-48
2022/07/05 09:33:11;;;;;;;3.22;2.55;;;20.00;62.90;;;;;;5074409;28;20525;-47
2022/07/05 09:35:40;;;;;;;3.60;2.67;;;20.00;62.70;;;;;;5067379;28;20047;-49
2022/07/05 09:38:16;;;;;;;2.60;2.40;;;19.90;62.60;;;;;;5082757;28;20036;-51
2022/07/05 09:40:56;;;;;;;3.17;2.72;;;19.90;62.60;;;;;;5070128;28;20040;-52
2022/07/05 09:43:28;;;;;;;2.95;2.75;;;19.90;62.60;;;;;;5084277;28;20127;-51
2022/07/05 09:45:56;;;;;;;2.88;2.60;;;19.90;62.70;;;;;;5085898;28;20048;-49
2022/07/05 09:48:23;;;;;;;3.25;2.65;;;19.90;63.10;;;;;;5073979;28;20032;-51
2022/07/05 09:50:50;;;;;;;2.67;2.47;;;19.90;63.20;;;;;;5076242;28;20058;-49
2022/07/05 09:53:17;;;;;;;3.47;2.83;;;20.00;63.40;;;;;;5085718;28;20058;-51
2022/07/05 09:56:02;;;;;;;2.90;2.60;;;20.00;63.30;;;;;;5065410;28;20041;-51
2022/07/05 09:58:28;;;;;;;2.83;2.63;;;19.90;63.10;;;;;;5081566;28;20477;-51
2022/07/05 10:00:54;;;;;;;3.40;2.70;;;19.90;63.00;;;;;;5081949;28;20065;-48
2022/07/05 10:03:20;;;;;;;2.83;2.50;;;19.90;63.00;;;;;;5079187;28;20766;-52
2022/07/05 10:05:46;;;;;;;2.45;2.25;;;19.90;63.40;;;;;;5079657;28;20039;-50
2022/07/05 10:08:13;;;;;;;3.20;2.90;;;19.90;63.50;;;;;;5082636;28;20051;-49
2022/07/05 10:10:39;;;;;;;2.90;2.58;;;20.00;63.60;;;;;;5082544;28;20028;-48
2022/07/05 10:13:08;;;;;;;2.80;2.60;;;20.00;63.70;;;;;;5092094;28;20066;-52
2022/07/05 10:15:35;;;;;;;3.00;2.70;;;20.00;63.80;;;;;;5077874;28;20024;-49
2022/07/05 10:18:16;;;;;;;2.88;2.58;;;20.00;63.90;;;;;;5074568;28;20037;-48
2022/07/05 10:20:44;;;;;;;3.35;3.05;;;20.00;64.00;;;;;;5080641;28;20054;-50
2022/07/05 10:23:17;;;;;;;3.20;2.90;;;20.00;64.10;;;;;;5082597;28;20429;-50
2022/07/05 10:25:49;;;;;;;3.03;2.42;;;20.00;64.20;;;;;;5082283;28;20101;-50
2022/07/05 10:28:21;;;;;;;2.88;2.67;;;20.00;64.20;;;;;;5093953;28;20026;-48
2022/07/05 10:30:50;;;;;;;2.63;2.42;;;20.00;64.20;;;;;;5086883;28;20036;-50
2022/07/05 10:33:24;;;;;;;2.65;2.45;;;20.10;64.40;;;;;;5080572;28;20067;-50
2022/07/05 10:35:51;;;;;;;2.67;2.47;;;20.00;64.40;;;;;;5085684;28;20118;-49
2022/07/05 10:38:17;;;;;;;2.97;2.67;;;20.00;64.50;;;;;;5080338;28;20138;-50
2022/07/05 10:40:43;;;;;;;2.72;2.53;;;20.00;64.50;;;;;;5083371;28;20055;-51
2022/07/05 10:43:10;;;;;;;3.37;2.70;;;20.00;64.50;;;;;;5058220;28;20041;-49
2022/07/05 10:45:38;;;;;;;2.50;2.30;;;20.10;64.60;;;;;;5081909;28;20029;-49
2022/07/05 10:48:36;;;;;;;2.83;2.63;;;20.10;64.70;;;;;;5076558;28;20028;-50
2022/07/05 10:51:13;;;;;;;2.50;2.30;;;20.10;64.80;;;;;;5070650;28;20036;-50
2022/07/05 10:53:39;;;;;;;2.58;2.33;;;20.10;64.80;;;;;;5083454;28;20036;-49
2022/07/05 10:56:05;;;;;;;2.72;2.42;;;20.10;64.80;;;;;;5080403;28;20062;-53
2022/07/05 10:58:36;;;;;;;3.03;2.72;;;20.10;64.90;;;;;;5081527;28;20033;-52
2022/07/05 11:01:20;;;;;;;2.50;2.30;;;20.10;64.90;;;;;;5080478;28;20035;-52
2022/07/05 11:04:01;;;;;;;2.33;2.13;;;20.20;65.00;;;;;;5071808;28;20496;-51
2022/07/05 11:06:33;;;;;;;2.65;2.45;;;20.20;65.00;;;;;;5075811;28;20040;-53
2022/07/05 11:09:00;;;;;;;2.60;2.40;;;20.20;65.00;;;;;;5078336;28;20039;-47
2022/07/05 11:11:27;;;;;;;2.95;2.70;;;20.20;65.00;;;;;;5082141;28;20021;-48
2022/07/05 11:13:58;;;;;;;2.72;2.50;;;20.20;65.10;;;;;;5082453;28;20032;-50
2022/07/05 11:16:27;;;;;;;2.65;2.45;;;20.20;65.10;;;;;;5078883;28;20192;-49
2022/07/05 11:19:16;;;;;;;2.90;2.60;;;20.20;65.20;;;;;;5077671;28;20205;-49
2022/07/05 11:22:03;;;;;;;2.65;2.42;;;20.30;65.30;;;;;;5089806;28;20061;-49
2022/07/05 11:24:35;;;;;;;2.72;2.50;;;20.30;65.30;;;;;;5075677;28;20032;-48
2022/07/05 11:27:02;;;;;;;2.80;2.60;;;20.30;65.40;;;;;;5079265;28;20051;-51
2022/07/05 11:29:54;;;;;;;;;;;20.30;65.40;;;;;;5075263;28;20021;-49
2022/07/05 11:32:35;;;;;;;2.80;2.60;;;20.30;65.40;;;;;;5074209;28;19912;-47
2022/07/05 11:35:16;;;;;;;2.90;2.60;;;20.30;65.50;;;;;;5083102;28;20091;-48
2022/07/05 11:37:59;;;;;;;2.60;2.38;;;20.30;65.60;;;;;;5084446;28;20043;-53
2022/07/05 11:40:27;;;;;;;2.78;2.58;;;20.30;65.60;;;;;;5081895;28;20026;-57
2022/07/05 11:42:53;;;;;;;2.65;2.45;;;20.30;65.70;;;;;;5089906;28;20021;-49
2022/07/05 11:45:19;;;;;;;3.03;2.70;;;20.40;65.70;;;;;;5085684;28;20036;-50
2022/07/05 11:47:45;;;;;;;5.95;3.00;;;20.40;65.80;;;;;;5085569;28;20672;-50
2022/07/05 11:50:11;;;;;;;3.05;2.67;;;20.40;65.70;;;;;;5081361;28;20032;-51
2022/07/05 11:52:38;;;;;;;3.43;2.70;;;20.40;65.70;;;;;;5081840;28;20025;-56
2022/07/05 11:55:08;;;;;;;3.20;2.92;;;20.50;65.80;;;;;;5080249;28;20289;-51
2022/07/05 11:57:35;;;;;;;4.10;2.60;;;20.50;65.80;;;;;;5085190;28;20045;-49
2022/07/05 12:00:02;;;;;;;3.05;2.78;;;20.50;65.80;;;;;;5081358;28;20024;-51
2022/07/05 12:02:28;;;;;;;3.28;2.97;;;20.50;65.80;;;;;;5074227;28;20040;-49
2022/07/05 12:04:55;;;;;;;4.45;2.78;;;20.50;65.80;;;;;;5078104;28;20043;-50
2022/07/05 12:07:32;;;;;;;4.38;3.17;;;20.50;65.90;;;;;;5077250;28;20037;-50
2022/07/05 12:12:43;;;;;;;4.35;3.00;;;20.60;66.00;;;;;;5081435;28;20031;-48
2022/07/05 12:15:09;;;;;;;2.80;2.60;;;20.60;66.00;;;;;;5080305;28;20111;-49
2022/07/05 12:17:36;;;;;;;2.70;2.50;;;20.60;66.00;;;;;;5080725;28;20194;-49
2022/07/05 12:20:04;;;;;;;3.05;2.58;;;20.60;66.00;;;;;;5079163;28;20024;-48
2022/07/05 12:22:40;;;;;;;3.05;2.80;;;20.60;66.00;;;;;;5078074;28;20033;-49
2022/07/05 12:25:09;;;;;;;2.53;2.30;;;20.60;66.10;;;;;;5097249;28;20024;-50
2022/07/05 12:27:37;;;;;;;3.15;2.85;;;20.60;66.10;;;;;;5079500;28;20058;-48
2022/07/05 12:30:04;;;;;;;3.20;2.60;;;20.60;66.10;;;;;;5081258;28;20092;-55
2022/07/05 12:32:31;;;;;;;5.10;2.90;;;20.70;66.20;;;;;;5084231;28;20040;-59
2022/07/05 12:34:58;;;;;;;4.90;2.83;;;20.70;66.20;;;;;;5074287;28;20059;-60
2022/07/05 12:37:25;;;;;;;3.13;2.63;;;20.70;66.10;;;;;;5082948;28;20108;-50
2022/07/05 12:40:05;;;;;;;3.45;3.15;;;20.80;66.10;;;;;;5078915;28;20450;-61
2022/07/05 12:42:37;;;;;;;4.25;3.20;;;20.80;65.70;;;;;;5078460;28;20055;-59
2022/07/05 12:45:10;;;;;;;4.22;3.80;;;20.80;65.20;;;;;;5087635;28;20048;-59
2022/07/05 12:48:03;;;;;;;4.15;3.75;;;20.90;64.40;;;;;;5089005;28;20441;-58
2022/07/05 12:50:46;;;;;;;4.07;3.55;;;20.90;64.50;;;;;;5083445;28;20036;-58
2022/07/05 12:58:59;;;;;;;4.82;3.80;;;20.90;64.90;;;;;;5084978;28;20737;-56